createdAt,value
2022-11-06T00:01:12.501Z,8.90
2022-11-06T00:03:39.534Z,8.77
2022-11-06T00:06:29.720Z,8.77
2022-11-06T00:08:56.834Z,10.63
2022-11-06T00:11:23.550Z,10.27
2022-11-06T00:13:52.468Z,9.83
2022-11-06T00:16:20.190Z,9.03
2022-11-06T00:18:47.690Z,8.70
2022-11-06T00:21:20.364Z,9.00
2022-11-06T00:23:47.569Z,9.13
2022-11-06T00:26:16.890Z,8.77
2022-11-06T00:28:44.172Z,8.83
2022-11-06T00:31:18.920Z,8.27
2022-11-06T00:33:46.021Z,8.20
2022-11-06T00:36:21.526Z,8.17
2022-11-06T00:38:51.121Z,8.93
2022-11-06T00:41:18.034Z,7.93
2022-11-06T00:43:53.273Z,7.83
2022-11-06T00:46:20.614Z,7.73
2022-11-06T00:48:47.849Z,8.07
2022-11-06T00:51:20.330Z,8.03
2022-11-06T00:53:47.550Z,10.10
2022-11-06T00:56:19.640Z,7.27
2022-11-06T00:58:47.663Z,8.27
2022-11-06T01:01:21.891Z,8.50
2022-11-06T01:03:58.461Z,8.80
2022-11-06T01:06:28.718Z,9.40
2022-11-06T01:08:56.452Z,7.67
2022-11-06T01:12:06.814Z,9.40
2022-11-06T01:14:26.043Z,8.27
2022-11-06T01:16:53.003Z,7.77
2022-11-06T01:19:21.386Z,9.10
2022-11-06T01:21:50.515Z,7.50
2022-11-06T01:24:21.626Z,6.67
2022-11-06T01:27:05.287Z,7.53
2022-11-06T01:29:35.990Z,7.70
2022-11-06T01:32:02.899Z,7.20
2022-11-06T01:34:29.694Z,7.63
2022-11-06T01:36:56.429Z,8.27
2022-11-06T01:39:23.114Z,7.93
2022-11-06T01:41:52.249Z,7.40
2022-11-06T01:44:43.529Z,7.20
2022-11-06T01:47:28.502Z,7.40
2022-11-06T01:49:59.408Z,7.33
2022-11-06T01:52:28.105Z,7.97
2022-11-06T01:55:00.552Z,8.50
2022-11-06T01:57:27.330Z,10.83
2022-11-06T01:59:55.394Z,8.30
2022-11-06T02:02:22.946Z,7.70
2022-11-06T02:04:50.041Z,8.00
2022-11-06T02:07:18.725Z,7.40
2022-11-06T02:09:45.852Z,8.50
2022-11-06T02:12:33.246Z,7.90
2022-11-06T02:15:11.830Z,7.30
2022-11-06T02:17:53.558Z,6.97
2022-11-06T02:20:50.051Z,6.90
2022-11-06T02:23:50.795Z,7.10
2022-11-06T02:26:41.891Z,7.13
2022-11-06T02:29:15.189Z,7.50
2022-11-06T02:31:44.130Z,6.30
2022-11-06T02:34:14.786Z,7.03
2022-11-06T02:36:52.531Z,8.63
2022-11-06T02:39:22.293Z,7.37
2022-11-06T02:41:51.337Z,8.70
2022-11-06T02:44:22.933Z,6.70
2022-11-06T02:47:04.976Z,8.80
2022-11-06T02:49:55.808Z,7.77
2022-11-06T02:52:29.327Z,9.00
2022-11-06T02:55:08.158Z,6.30
2022-11-06T02:57:37.911Z,6.30
2022-11-06T03:00:13.949Z,6.37
2022-11-06T03:02:48.734Z,6.17
2022-11-06T03:05:36.211Z,6.90
2022-11-06T03:08:20.808Z,6.40
2022-11-06T03:11:19.531Z,26.03
2022-11-06T03:13:58.230Z,8.77
2022-11-06T03:16:53.680Z,6.57
2022-11-06T03:19:33.174Z,7.23
2022-11-06T03:22:21.265Z,6.83
2022-11-06T03:25:23.486Z,7.93
2022-11-06T03:27:56.173Z,8.50
2022-11-06T03:30:23.287Z,6.67
2022-11-06T03:32:53.492Z,11.10
2022-11-06T03:35:29.946Z,7.77
2022-11-06T03:38:08.514Z,7.93
2022-11-06T03:40:40.377Z,5.53
2022-11-06T03:43:10.789Z,10.13
2022-11-06T03:45:41.346Z,5.93
2022-11-06T03:48:20.061Z,6.57
2022-11-06T03:51:07.079Z,5.77
2022-11-06T03:53:48.290Z,8.70
2022-11-06T03:56:25.218Z,6.80
2022-11-06T03:58:53.978Z,6.83
2022-11-06T04:01:25.407Z,7.23
2022-11-06T04:03:58.404Z,6.77
2022-11-06T04:06:40.836Z,7.40
2022-11-06T04:09:28.704Z,8.93
2022-11-06T04:12:16.419Z,7.13
2022-11-06T04:14:48.343Z,7.93
2022-11-06T04:17:17.581Z,6.60
2022-11-06T04:19:52.897Z,6.60
2022-11-06T04:22:32.642Z,6.67
2022-11-06T04:25:27.055Z,6.33
2022-11-06T04:28:04.883Z,6.70
2022-11-06T04:30:38.365Z,8.23
2022-11-06T04:33:09.237Z,8.50
2022-11-06T04:35:38.795Z,7.93
2022-11-06T04:38:12.803Z,7.23
2022-11-06T04:40:58.123Z,6.80
2022-11-06T04:43:30.907Z,6.53
2022-11-06T04:46:00.653Z,6.40
2022-11-06T04:48:28.137Z,6.17
2022-11-06T04:50:59.739Z,6.30
2022-11-06T04:53:28.037Z,9.00
2022-11-06T04:55:59.830Z,7.07
2022-11-06T04:58:26.745Z,8.60
2022-11-06T05:00:53.703Z,7.07
2022-11-06T05:03:20.727Z,6.73
2022-11-06T05:05:47.732Z,8.77
2022-11-06T05:08:19.204Z,7.07
2022-11-06T05:10:47.040Z,6.60
2022-11-06T05:13:14.961Z,7.43
2022-11-06T05:15:42.739Z,7.07
2022-11-06T05:18:09.584Z,7.87
2022-11-06T05:20:36.459Z,8.03
2022-11-06T05:23:06.209Z,7.33
2022-11-06T05:25:35.632Z,6.20
2022-11-06T05:28:05.785Z,6.53
2022-11-06T05:30:32.699Z,7.47
2022-11-06T05:32:59.477Z,6.20
2022-11-06T05:35:26.204Z,6.00
2022-11-06T05:38:02.137Z,6.10
2022-11-06T05:40:29.044Z,8.97
2022-11-06T05:42:55.751Z,6.90
2022-11-06T05:45:22.800Z,6.90
2022-11-06T05:47:49.577Z,6.03
2022-11-06T05:50:16.469Z,5.77
2022-11-06T05:52:45.693Z,7.53
2022-11-06T05:55:15.004Z,6.17
2022-11-06T05:57:42.507Z,6.90
2022-11-06T06:00:10.855Z,5.53
2022-11-06T06:02:38.986Z,6.03
2022-11-06T06:05:06.602Z,7.30
2022-11-06T06:07:33.940Z,10.10
2022-11-06T06:10:00.738Z,9.43
2022-11-06T06:12:27.470Z,7.77
2022-11-06T06:14:54.415Z,7.17
2022-11-06T06:17:21.708Z,6.13
2022-11-06T06:19:48.840Z,7.40
2022-11-06T06:22:15.710Z,7.10
2022-11-06T06:24:42.428Z,6.47
2022-11-06T06:27:09.801Z,6.07
2022-11-06T06:29:36.649Z,4.73
2022-11-06T06:32:07.114Z,5.17
2022-11-06T06:34:33.825Z,6.80
2022-11-06T06:37:00.990Z,9.30
2022-11-06T06:39:27.652Z,7.50
2022-11-06T06:41:54.678Z,6.70
2022-11-06T06:44:21.455Z,7.10
2022-11-06T06:46:48.179Z,6.50
2022-11-06T06:49:14.873Z,7.03
2022-11-06T06:51:41.687Z,6.77
2022-11-06T06:54:11.229Z,8.90
2022-11-06T06:56:38.177Z,8.13
2022-11-06T06:59:04.912Z,6.40
2022-11-06T07:01:31.705Z,9.33
2022-11-06T07:04:03.896Z,8.70
2022-11-06T07:06:31.588Z,6.63
2022-11-06T07:08:58.345Z,7.07
2022-11-06T07:11:25.139Z,6.33
2022-11-06T07:13:51.878Z,7.00
2022-11-06T07:16:18.629Z,6.97
2022-11-06T07:18:45.389Z,6.00
2022-11-06T07:21:13.089Z,6.83
2022-11-06T07:23:41.339Z,6.70
2022-11-06T07:26:08.329Z,6.97
2022-11-06T07:28:35.637Z,8.43
2022-11-06T07:31:06.152Z,7.27
2022-11-06T07:33:35.029Z,8.43
2022-11-06T07:36:28.165Z,7.30
2022-11-06T07:38:58.068Z,9.07
2022-11-06T07:41:25.027Z,8.20
2022-11-06T07:43:51.826Z,7.07
2022-11-06T07:46:18.553Z,7.93
2022-11-06T07:48:45.384Z,7.43
2022-11-06T07:51:12.607Z,6.60
2022-11-06T07:53:39.447Z,7.73
2022-11-06T07:56:08.623Z,9.17
2022-11-06T07:58:35.355Z,8.87
2022-11-06T08:01:02.555Z,9.27
2022-11-06T08:03:32.364Z,8.33
2022-11-06T08:05:59.649Z,7.80
2022-11-06T08:08:28.105Z,6.87
2022-11-06T08:10:55.133Z,6.87
2022-11-06T08:13:21.963Z,9.20
2022-11-06T08:15:48.738Z,7.07
2022-11-06T08:18:15.873Z,9.87
2022-11-06T08:20:43.081Z,9.33
2022-11-06T08:23:12.997Z,8.53
2022-11-06T08:25:40.394Z,10.80
2022-11-06T08:28:07.145Z,8.50
2022-11-06T08:30:34.223Z,9.70
2022-11-06T08:33:02.873Z,9.20
2022-11-06T08:35:29.976Z,11.43
2022-11-06T08:37:56.849Z,9.67
2022-11-06T08:40:29.405Z,8.10
2022-11-06T08:43:05.509Z,8.77
2022-11-06T08:45:32.732Z,10.40
2022-11-06T08:48:03.775Z,8.40
2022-11-06T08:50:31.919Z,8.77
2022-11-06T08:53:06.465Z,9.30
2022-11-06T08:55:35.141Z,8.40
2022-11-06T08:58:02.110Z,8.97
2022-11-06T09:00:29.623Z,9.07
2022-11-06T09:03:01.485Z,8.50
2022-11-06T09:05:29.743Z,9.30
2022-11-06T09:07:58.110Z,10.23
2022-11-06T09:10:26.494Z,8.13
2022-11-06T09:12:53.396Z,8.17
2022-11-06T09:15:20.362Z,9.60
2022-11-06T09:17:49.202Z,8.67
2022-11-06T09:20:18.912Z,8.57
2022-11-06T09:22:46.441Z,7.00
2022-11-06T09:25:14.118Z,6.20
2022-11-06T09:27:58.539Z,6.50
2022-11-06T09:30:28.029Z,5.57
2022-11-06T09:32:57.392Z,5.97
2022-11-06T09:35:25.507Z,4.37
2022-11-06T09:37:52.813Z,4.07
2022-11-06T09:40:33.542Z,3.63
2022-11-06T09:43:31.652Z,3.37
2022-11-06T09:46:23.502Z,3.30
2022-11-06T09:49:00.330Z,3.10
2022-11-06T09:51:40.746Z,3.23
2022-11-06T09:54:41.930Z,3.80
2022-11-06T09:57:20.968Z,4.20
2022-11-06T09:59:48.771Z,3.83
2022-11-06T10:02:47.229Z,4.27
2022-11-06T10:05:17.736Z,3.10
2022-11-06T10:07:46.941Z,3.27
2022-11-06T10:10:18.167Z,3.40
2022-11-06T10:13:26.799Z,3.23
2022-11-06T10:16:11.525Z,3.23
2022-11-06T10:18:49.125Z,4.83
2022-11-06T10:21:20.123Z,6.07
2022-11-06T10:23:55.587Z,3.87
2022-11-06T10:26:37.697Z,3.10
2022-11-06T10:29:23.189Z,3.40
2022-11-06T10:32:11.203Z,4.47
2022-11-06T10:34:49.734Z,3.80
2022-11-06T10:37:29.780Z,4.93
2022-11-06T10:39:58.470Z,3.90
2022-11-06T10:42:38.270Z,4.03
2022-11-06T10:45:16.196Z,3.60
2022-11-06T10:47:50.986Z,3.90
2022-11-06T10:50:18.469Z,3.27
2022-11-06T10:52:51.243Z,3.90
2022-11-06T10:55:46.885Z,3.70
2022-11-06T10:58:22.037Z,4.30
2022-11-06T11:00:50.561Z,3.53
2022-11-06T11:03:30.008Z,3.43
2022-11-06T11:05:56.875Z,4.23
2022-11-06T11:08:44.206Z,3.83
2022-11-06T11:11:13.968Z,3.93
2022-11-06T11:13:42.035Z,4.77
2022-11-06T11:16:18.657Z,4.10
2022-11-06T11:18:46.558Z,4.80
2022-11-06T11:21:19.164Z,3.90
2022-11-06T11:23:52.765Z,3.83
2022-11-06T11:26:27.617Z,4.97
2022-11-06T11:29:11.422Z,4.40
2022-11-06T11:31:38.709Z,4.60
2022-11-06T11:34:18.581Z,4.77
2022-11-06T11:36:55.781Z,4.57
2022-11-06T11:39:27.562Z,4.60
2022-11-06T11:41:54.478Z,4.00
2022-11-06T11:44:21.379Z,3.83
2022-11-06T11:46:51.319Z,5.07
2022-11-06T11:49:33.206Z,5.40
2022-11-06T11:52:13.014Z,4.37
2022-11-06T11:54:40.579Z,4.50
2022-11-06T11:57:17.654Z,4.23
2022-11-06T11:59:55.231Z,4.27
2022-11-06T12:02:49.186Z,4.60
2022-11-06T12:05:21.455Z,5.13
2022-11-06T12:07:51.720Z,5.00
2022-11-06T12:10:24.243Z,5.03
2022-11-06T12:12:53.150Z,5.60
2022-11-06T12:15:24.372Z,4.70
2022-11-06T12:18:09.482Z,5.13
2022-11-06T12:20:54.918Z,6.03
2022-11-06T12:23:32.049Z,4.70
2022-11-06T12:26:40.039Z,4.20
2022-11-06T12:29:12.952Z,4.23
2022-11-06T12:31:45.364Z,3.90
2022-11-06T12:34:21.109Z,3.90
2022-11-06T12:37:04.176Z,4.37
2022-11-06T12:39:34.644Z,5.63
2022-11-06T12:42:04.132Z,3.63
2022-11-06T12:44:30.856Z,4.10
2022-11-06T12:47:26.422Z,3.60
2022-11-06T12:50:08.387Z,4.03
2022-11-06T12:52:35.069Z,4.30
2022-11-06T12:55:23.615Z,3.80
2022-11-06T12:58:21.938Z,4.20
2022-11-06T13:01:13.469Z,4.87
2022-11-06T13:03:40.235Z,3.33
2022-11-06T13:06:14.624Z,4.17
2022-11-06T13:09:09.065Z,4.47
2022-11-06T13:11:45.287Z,3.80
2022-11-06T13:14:34.633Z,3.40
2022-11-06T13:17:07.582Z,3.73
2022-11-06T13:19:56.024Z,3.20
2022-11-06T13:22:36.177Z,4.17
2022-11-06T13:25:15.194Z,4.13
2022-11-06T13:27:57.585Z,3.83
2022-11-06T13:30:24.858Z,4.73
2022-11-06T13:32:54.306Z,4.43
2022-11-06T13:35:22.462Z,4.03
2022-11-06T13:37:51.229Z,4.43
2022-11-06T13:40:43.053Z,4.50
2022-11-06T13:43:20.123Z,4.67
2022-11-06T13:46:07.206Z,5.83
2022-11-06T13:49:25.673Z,5.20
2022-11-06T13:51:56.484Z,5.27
2022-11-06T13:54:58.888Z,7.87
2022-11-06T13:57:31.271Z,5.20
2022-11-06T14:00:19.106Z,4.73
2022-11-06T14:03:13.442Z,5.40
2022-11-06T14:05:58.283Z,5.80
2022-11-06T14:08:33.529Z,4.70
2022-11-06T14:11:05.217Z,6.27
2022-11-06T14:13:36.340Z,4.03
2022-11-06T14:16:27.493Z,5.53
2022-11-06T14:19:01.970Z,4.97
2022-11-06T14:21:37.792Z,5.13
2022-11-06T14:24:17.754Z,5.57
2022-11-06T14:26:49.572Z,5.40
2022-11-06T14:29:28.727Z,5.53
2022-11-06T14:32:23.942Z,4.67
2022-11-06T14:34:50.727Z,4.87
2022-11-06T14:37:20.333Z,5.03
2022-11-06T14:39:55.613Z,6.03
2022-11-06T14:42:38.020Z,5.23
2022-11-06T14:45:10.140Z,5.20
2022-11-06T14:47:56.818Z,5.10
2022-11-06T14:50:34.171Z,4.83
2022-11-06T14:53:04.900Z,5.73
2022-11-06T14:55:42.684Z,5.43
2022-11-06T14:58:25.735Z,5.63
2022-11-06T15:01:16.297Z,5.10
2022-11-06T15:03:54.031Z,5.43
2022-11-06T15:06:33.011Z,5.50
2022-11-06T15:09:12.861Z,6.70
2022-11-06T15:11:47.465Z,5.10
2022-11-06T15:14:14.880Z,6.07
2022-11-06T15:16:51.916Z,6.23
2022-11-06T15:19:19.390Z,8.87
2022-11-06T15:21:54.891Z,7.30
2022-11-06T15:24:29.033Z,6.87
2022-11-06T15:26:59.369Z,7.20
2022-11-06T15:29:29.242Z,6.63
2022-11-06T15:32:04.189Z,7.23
2022-11-06T15:34:36.448Z,6.90
2022-11-06T15:37:33.748Z,8.03
2022-11-06T15:40:01.778Z,7.70
2022-11-06T15:42:31.905Z,8.30
2022-11-06T15:45:12.853Z,8.03
2022-11-06T15:47:39.767Z,7.63
2022-11-06T15:50:18.107Z,8.87
2022-11-06T15:52:46.120Z,6.93
2022-11-06T15:55:23.405Z,7.40
2022-11-06T15:57:51.186Z,6.47
2022-11-06T16:00:26.025Z,7.93
2022-11-06T16:03:01.088Z,7.17
2022-11-06T16:05:30.852Z,6.53
2022-11-06T16:07:59.570Z,7.60
2022-11-06T16:10:27.252Z,7.17
2022-11-06T16:12:55.476Z,7.60
2022-11-06T16:15:48.191Z,6.73
2022-11-06T16:18:27.331Z,7.13
2022-11-06T16:21:07.569Z,7.80
2022-11-06T16:23:39.420Z,6.63
2022-11-06T16:26:13.102Z,7.47
2022-11-06T16:28:45.627Z,7.13
2022-11-06T16:31:18.905Z,7.47
2022-11-06T16:34:25.749Z,7.30
2022-11-06T16:37:04.227Z,7.37
2022-11-06T16:39:47.690Z,7.10
2022-11-06T16:42:27.761Z,7.70
2022-11-06T16:45:31.324Z,7.40
2022-11-06T16:48:40.228Z,8.70
2022-11-06T16:51:09.714Z,9.80
2022-11-06T16:54:00.003Z,11.27
2022-11-06T16:56:32.403Z,10.60
2022-11-06T16:59:04.225Z,11.23
2022-11-06T17:01:44.550Z,14.30
2022-11-06T17:04:21.947Z,11.30
2022-11-06T17:06:50.956Z,13.00
2022-11-06T17:09:28.094Z,17.10
2022-11-06T17:11:57.417Z,9.30
2022-11-06T17:14:25.240Z,9.63
2022-11-06T17:16:53.644Z,6.70
2022-11-06T17:19:21.681Z,8.30
2022-11-06T17:21:49.104Z,6.77
2022-11-06T17:24:36.371Z,5.80
2022-11-06T17:27:03.190Z,5.70
2022-11-06T17:29:29.994Z,6.33
2022-11-06T17:31:56.805Z,6.37
2022-11-06T17:34:23.540Z,6.23
2022-11-06T17:36:50.435Z,5.63
2022-11-06T17:39:17.463Z,4.97
2022-11-06T17:41:44.625Z,5.60
2022-11-06T17:44:12.965Z,6.33
2022-11-06T17:46:44.751Z,5.83
2022-11-06T17:49:17.179Z,4.73
2022-11-06T17:51:58.407Z,5.83
2022-11-06T17:54:28.054Z,6.60
2022-11-06T17:56:56.950Z,5.30
2022-11-06T17:59:24.078Z,4.97
2022-11-06T18:01:52.131Z,4.50
2022-11-06T18:04:20.549Z,6.07
2022-11-06T18:06:49.058Z,6.37
2022-11-06T18:09:16.352Z,6.37
2022-11-06T18:11:43.602Z,6.57
2022-11-06T18:14:11.203Z,6.57
2022-11-06T18:16:43.650Z,6.77
2022-11-06T18:19:15.297Z,10.60
2022-11-06T18:21:43.248Z,9.67
2022-11-06T18:24:10.049Z,11.87
2022-11-06T18:26:40.159Z,13.43
2022-11-06T18:29:08.418Z,12.07
2022-11-06T18:31:35.496Z,9.90
2022-11-06T18:34:03.383Z,12.33
2022-11-06T18:36:32.514Z,8.47
2022-11-06T18:38:59.485Z,8.20
2022-11-06T18:41:26.268Z,9.17
2022-11-06T18:44:02.232Z,12.33
2022-11-06T18:46:29.932Z,8.07
2022-11-06T18:48:57.515Z,7.53
2022-11-06T18:51:35.023Z,7.00
2022-11-06T18:54:04.888Z,12.17
2022-11-06T18:56:33.727Z,7.90
2022-11-06T18:59:00.800Z,9.80
2022-11-06T19:01:28.722Z,9.33
2022-11-06T19:03:55.871Z,8.27
2022-11-06T19:06:22.661Z,8.97
2022-11-06T19:08:49.930Z,9.50
2022-11-06T19:11:18.595Z,8.57
2022-11-06T19:13:48.218Z,8.93
2022-11-06T19:16:19.241Z,8.60
2022-11-06T19:18:46.699Z,8.53
2022-11-06T19:21:15.758Z,12.17
2022-11-06T19:23:44.453Z,14.90
2022-11-06T19:26:30.458Z,10.27
2022-11-06T19:28:58.488Z,9.80
2022-11-06T19:31:29.219Z,9.17
2022-11-06T19:33:57.745Z,13.43
2022-11-06T19:36:25.408Z,9.10
2022-11-06T19:38:52.917Z,8.17
2022-11-06T19:41:20.584Z,10.60
2022-11-06T19:43:47.455Z,11.17
2022-11-06T19:46:17.080Z,9.33
2022-11-06T19:48:46.791Z,7.30
2022-11-06T19:51:15.538Z,8.67
2022-11-06T19:53:43.061Z,7.57
2022-11-06T19:56:18.873Z,6.43
2022-11-06T19:58:45.743Z,7.83
2022-11-06T20:01:13.726Z,9.67
2022-11-06T20:03:40.981Z,12.00
2022-11-06T20:06:08.435Z,12.03
2022-11-06T20:08:38.645Z,11.83
2022-11-06T20:11:06.884Z,12.07
2022-11-06T20:13:36.551Z,10.07
2022-11-06T20:16:04.379Z,11.63
2022-11-06T20:18:31.523Z,13.37
2022-11-06T20:21:03.484Z,23.70
2022-11-06T20:23:30.595Z,14.87
2022-11-06T20:25:57.656Z,13.47
2022-11-06T20:28:25.185Z,16.47
2022-11-06T20:30:52.564Z,18.93
2022-11-06T20:33:19.451Z,18.43
2022-11-06T20:35:46.630Z,20.70
2022-11-06T20:38:14.489Z,18.03
2022-11-06T20:40:45.462Z,13.80
2022-11-06T20:43:12.829Z,11.73
2022-11-06T20:45:40.004Z,13.03
2022-11-06T20:48:08.127Z,10.07
2022-11-06T20:50:35.210Z,9.77
2022-11-06T20:53:02.024Z,10.60
2022-11-06T20:55:29.376Z,12.10
2022-11-06T20:57:56.140Z,12.10
2022-11-06T21:00:23.105Z,13.70
2022-11-06T21:02:50.060Z,14.37
2022-11-06T21:05:17.092Z,14.07
2022-11-06T21:07:43.809Z,13.27
2022-11-06T21:10:12.023Z,13.87
2022-11-06T21:12:38.874Z,13.40
2022-11-06T21:15:06.256Z,15.83
2022-11-06T21:17:33.037Z,20.93
2022-11-06T21:20:00.112Z,17.87
2022-11-06T21:22:26.957Z,18.83
2022-11-06T21:24:53.825Z,18.63
2022-11-06T21:27:20.808Z,16.37
2022-11-06T21:29:47.569Z,17.20
2022-11-06T21:32:14.347Z,14.17
2022-11-06T21:34:41.151Z,12.30
2022-11-06T21:37:07.950Z,12.47
2022-11-06T21:39:36.714Z,13.57
2022-11-06T21:42:05.174Z,13.97
2022-11-06T21:44:32.493Z,12.27
2022-11-06T21:46:59.334Z,13.07
2022-11-06T21:49:26.140Z,13.37
2022-11-06T21:51:53.033Z,15.87
2022-11-06T21:54:38.725Z,11.33
2022-11-06T21:57:05.526Z,8.70
2022-11-06T21:59:35.145Z,10.77
2022-11-06T22:02:04.469Z,9.03
2022-11-06T22:04:31.558Z,7.70
2022-11-06T22:06:58.600Z,8.23
2022-11-06T22:09:26.257Z,8.57
2022-11-06T22:11:53.462Z,8.00
2022-11-06T22:14:20.456Z,7.30
2022-11-06T22:16:47.690Z,8.73
2022-11-06T22:19:16.069Z,7.97
2022-11-06T22:21:43.530Z,8.23
2022-11-06T22:24:12.671Z,9.47
2022-11-06T22:26:40.013Z,8.40
2022-11-06T22:29:10.293Z,9.57
2022-11-06T22:31:37.166Z,8.80
2022-11-06T22:34:04.671Z,10.97
2022-11-06T22:36:31.948Z,12.07
2022-11-06T22:39:00.666Z,14.70
2022-11-06T22:41:27.553Z,13.80
2022-11-06T22:43:58.768Z,14.43
2022-11-06T22:46:26.838Z,15.63
2022-11-06T22:48:54.022Z,12.80
2022-11-06T22:51:30.886Z,16.33
2022-11-06T22:53:58.850Z,14.87
2022-11-06T22:56:27.256Z,13.20
2022-11-06T22:58:55.552Z,14.60
2022-11-06T23:01:24.344Z,11.43
2022-11-06T23:03:56.493Z,5.83
2022-11-06T23:06:24.687Z,7.57
2022-11-06T23:08:54.827Z,6.30
2022-11-06T23:11:23.613Z,7.20
2022-11-06T23:13:50.691Z,9.17
2022-11-06T23:16:40.131Z,8.33
2022-11-06T23:19:07.368Z,14.47
2022-11-06T23:21:34.268Z,8.73
2022-11-06T23:24:01.185Z,11.63
2022-11-06T23:26:27.934Z,18.17
2022-11-06T23:28:57.042Z,15.00
2022-11-06T23:31:24.170Z,17.43
2022-11-06T23:33:50.941Z,16.43
2022-11-06T23:36:18.341Z,16.13
2022-11-06T23:38:45.463Z,16.93
2022-11-06T23:41:33.423Z,10.27
2022-11-06T23:44:00.758Z,9.20
2022-11-06T23:46:30.726Z,8.90
2022-11-06T23:48:57.909Z,10.03
2022-11-06T23:51:25.902Z,10.43
2022-11-06T23:53:53.215Z,8.33
2022-11-06T23:56:20.300Z,9.70
2022-11-06T23:58:47.028Z,8.37
